Terminal Aerodrome Forecast
Issued by NWS

Home | Current Version | Previous Version | Text Only | Print | Product List | Glossary On
Versions: 1 2 3 4 5 6 7 8 9 10 11 12 13 14 15 16 17
000
FTUS45 KRIW 211100
TAFJAC
TAF
KJAC 211121Z 2112/2212 19014KT 2SM -SN SCT007 OVC015
      TEMPO 2112/2116 1SM -SN SCT003 OVC008
     FM211700 21018G26KT 3SM -SN BLSN SCT009 OVC018
     FM220100 24015G23KT 2SM -SHSN BKN018
     FM220700 19009KT 5SM -SHSN SCT018 BKN030
      AMD LTD TO CLD VIS AND WIND=

USA.gov is the U.S. government's official web portal to all federal, state and local government web resources and services.